Time;durP1;ratioP1;P1;durP2;ratioP2;P2;SDS_P1;SDS_P2;PMS_P1;PMS_P2;Temp;Humidity;BMP_temperature;BMP_pressure;BME280_temperature;BME280_humidity;BME280_pressure;Samples;Min_cycle;Max_cycle;Signal;HPM_P1;HPM_P2
2022/09/22 00:01:17;;;;;;;7.85;3.80;;;;;;;9.02;88.08;100426.50;4493126;31;34570;-76
2022/09/22 00:03:52;;;;;;;7.35;3.78;;;;;;;8.94;87.62;100432.91;4488500;31;33846;-76
2022/09/22 00:06:22;;;;;;;9.57;4.47;;;;;;;8.81;89.37;100427.00;4485422;31;32971;-76
2022/09/22 00:08:53;;;;;;;7.12;3.85;;;;;;;8.77;88.48;100427.63;4477705;32;32348;-76
2022/09/22 00:11:27;;;;;;;8.00;4.00;;;;;;;8.65;89.57;100432.00;4490528;31;33222;-76
2022/09/22 00:14:01;;;;;;;8.75;4.30;;;;;;;8.96;88.15;100432.22;4490038;31;33675;-76
2022/09/22 00:16:32;;;;;;;7.78;4.22;;;;;;;8.68;89.41;100428.72;4490671;31;34071;-76
2022/09/22 00:19:00;;;;;;;8.10;4.07;;;;;;;8.85;88.71;100422.91;4496612;31;33614;-76
2022/09/22 00:21:29;;;;;;;7.00;3.95;;;;;;;9.82;83.34;100411.44;4474011;31;33598;-76
2022/09/22 00:24:01;;;;;;;8.30;3.78;;;;;;;9.92;81.79;100418.03;4490921;31;33356;-76
2022/09/22 00:26:30;;;;;;;7.18;4.03;;;;;;;9.11;85.96;100416.75;4484798;31;33035;-76
2022/09/22 00:28:58;;;;;;;6.90;3.87;;;;;;;9.50;84.05;100425.09;4493058;31;34547;-76
2022/09/22 00:31:26;;;;;;;7.40;4.18;;;;;;;8.80;88.04;100414.88;4484742;31;33484;-76
2022/09/22 00:33:54;;;;;;;7.12;3.67;;;;;;;8.68;89.23;100419.28;4483568;31;33588;-76
2022/09/22 00:36:24;;;;;;;7.87;3.75;;;;;;;10.03;81.98;100410.91;4474906;31;32760;-76
2022/09/22 00:38:55;;;;;;;6.80;3.87;;;;;;;10.49;79.03;100412.56;4486914;31;34396;-76
2022/09/22 00:41:29;;;;;;;7.70;3.92;;;;;;;10.14;79.46;100401.12;4459269;32;34689;-76
2022/09/22 00:44:25;;;;;;;7.23;3.87;;;;;;;10.60;78.09;100411.47;4486534;31;34203;-76
2022/09/22 00:46:54;;;;;;;;;;;;;;;10.69;77.49;100411.09;4487669;31;33289;-76
2022/09/22 00:49:28;;;;;;;7.45;4.62;;;;;;;9.60;83.72;100411.91;4479633;31;32751;-76
2022/09/22 00:51:56;;;;;;;10.63;4.90;;;;;;;9.11;85.78;100406.41;4476126;31;33941;-76
2022/09/22 00:54:23;;;;;;;9.98;5.25;;;;;;;9.31;84.37;100409.28;4477984;31;33592;-76
2022/09/22 00:57:04;;;;;;;7.65;4.35;;;;;;;9.25;84.58;100407.22;4484556;31;33516;-76
2022/09/22 00:59:31;;;;;;;8.63;4.20;;;;;;;9.55;83.74;100402.09;4496010;31;34698;-76
2022/09/22 01:01:59;;;;;;;8.05;4.12;;;;;;;10.37;79.76;100403.34;4478744;32;33583;-76
2022/09/22 01:04:27;;;;;;;7.62;3.67;;;;;;;10.09;80.28;100400.88;4481929;32;33799;-76
2022/09/22 01:06:56;;;;;;;7.75;4.03;;;;;;;10.38;78.56;100405.12;4479612;32;33267;-76
2022/09/22 01:09:24;;;;;;;7.82;4.37;;;;;;;9.56;82.26;100397.03;4472148;32;34555;-76
2022/09/22 01:11:52;;;;;;;8.00;3.90;;;;;;;10.65;77.63;100402.25;4479626;32;34363;-76
2022/09/22 01:14:36;;;;;;;10.63;3.70;;;;;;;9.82;80.28;100395.03;4478009;32;34508;-76
2022/09/22 01:17:43;;;;;;;7.95;3.85;;;;;;;10.38;78.49;100394.75;4475605;32;33567;-76
2022/09/22 01:20:26;;;;;;;7.50;4.00;;;;;;;9.33;82.02;100394.75;4454820;32;32921;-76
2022/09/22 01:23:30;;;;;;;8.30;4.30;;;;;;;8.90;86.07;100389.59;4482086;32;33663;-76
2022/09/22 01:26:26;;;;;;;8.50;4.50;;;;;;;9.03;85.01;100386.97;4482291;32;33680;-76
2022/09/22 01:29:22;;;;;;;8.77;5.32;;;;;;;8.66;88.13;100395.06;4483129;32;33554;-76
2022/09/22 01:32:00;;;;;;;8.93;4.65;;;;;;;8.73;87.42;100386.91;4475506;32;33902;-76
2022/09/22 01:34:39;;;;;;;9.18;4.43;;;;;;;8.59;87.40;100395.47;4474600;32;34071;-76
2022/09/22 01:37:10;;;;;;;7.60;3.97;;;;;;;9.59;82.36;100392.00;4480958;32;33567;-76
2022/09/22 01:39:44;;;;;;;7.03;3.97;;;;;;;9.55;82.50;100400.38;4469279;32;34026;-76
2022/09/22 01:42:34;;;;;;;9.05;4.78;;;;;;;9.99;78.62;100394.28;4469877;32;34425;-76
2022/09/22 01:45:10;;;;;;;9.05;4.07;;;;;;;10.27;78.47;100390.66;4475111;32;33910;-77
2022/09/22 01:47:46;;;;;;;9.77;5.10;;;;;;;10.08;78.97;100387.84;4467662;32;34585;-76
2022/09/22 01:50:27;;;;;;;8.82;5.10;;;;;;;9.77;81.14;100396.44;4470260;32;33354;-76
2022/09/22 01:52:58;;;;;;;8.85;5.37;;;;;;;9.73;81.45;100395.38;4475302;32;32212;-76
2022/09/22 01:55:37;;;;;;;8.90;5.75;;;;;;;9.69;81.67;100393.44;4473128;32;34483;-76
2022/09/22 01:58:12;;;;;;;8.77;5.35;;;;;;;8.77;85.73;100394.03;4473278;32;33521;-76
2022/09/22 02:00:43;;;;;;;9.30;5.75;;;;;;;8.96;86.60;100396.06;4472579;32;34248;-76
2022/09/22 02:03:24;;;;;;;10.05;5.50;;;;;;;8.63;87.95;100392.28;4476115;32;33862;-76
2022/09/22 02:05:59;;;;;;;9.55;5.25;;;;;;;8.15;91.19;100390.94;4480222;32;35277;-76
2022/09/22 02:08:32;;;;;;;11.27;5.60;;;;;;;8.31;89.85;100385.97;4469648;32;33417;-76
2022/09/22 02:11:03;;;;;;;11.60;5.57;;;;;;;8.43;89.54;100386.75;4470101;32;33429;-76
2022/09/22 02:13:30;;;;;;;8.77;4.90;;;;;;;8.17;90.97;100389.34;4473668;32;33921;-76
2022/09/22 02:16:01;;;;;;;8.93;5.65;;;;;;;8.25;91.29;100385.59;4480950;32;33323;-76
2022/09/22 02:18:38;;;;;;;10.13;5.75;;;;;;;8.63;88.27;100394.84;4478042;32;32964;-76
2022/09/22 02:21:06;;;;;;;8.98;4.87;;;;;;;9.15;86.56;100392.84;4481055;32;33089;-76
2022/09/22 02:23:34;;;;;;;9.18;4.95;;;;;;;8.83;87.22;100393.53;4483356;32;34491;-76
2022/09/22 02:26:03;;;;;;;11.05;5.10;;;;;;;8.77;87.62;100391.44;4484676;32;33502;-76
2022/09/22 02:28:32;;;;;;;9.77;5.37;;;;;;;9.16;84.09;100383.44;4483709;32;34491;-76
2022/09/22 02:31:00;;;;;;;8.27;4.55;;;;;;;9.48;83.99;100387.91;4472280;32;33405;-76
2022/09/22 02:33:47;;;;;;;8.60;4.07;;;;;;;9.88;80.73;100379.84;4476024;32;33499;-76
2022/09/22 02:36:42;;;;;;;9.35;4.18;;;;;;;10.17;78.45;100385.78;4484903;32;34012;-76
2022/09/22 02:39:18;;;;;;;8.82;4.62;;;;;;;9.69;80.21;100387.38;4483160;32;33889;-76
2022/09/22 02:42:16;;;;;;;7.45;4.65;;;;;;;10.01;79.74;100382.34;4482369;32;33197;-76
2022/09/22 02:44:49;;;;;;;8.55;4.53;;;;;;;8.89;83.63;100393.00;4483928;32;32567;-76
2022/09/22 02:47:24;;;;;;;8.48;4.65;;;;;;;8.28;88.73;100390.94;4483952;32;33938;-76
2022/09/22 02:49:54;;;;;;;8.30;4.30;;;;;;;8.66;86.23;100389.91;4477968;32;33768;-76
2022/09/22 02:52:23;;;;;;;8.10;4.75;;;;;;;7.86;89.03;100389.97;4476140;32;33114;-76
2022/09/22 02:54:52;;;;;;;9.65;4.55;;;;;;;8.01;89.90;100401.25;4483842;32;33953;-76
2022/09/22 02:57:20;;;;;;;7.30;4.18;;;;;;;9.38;81.79;100390.75;4483352;32;34725;-76
2022/09/22 02:59:48;;;;;;;8.45;4.55;;;;;;;8.37;86.28;100383.78;4481015;32;34227;-76
2022/09/22 03:02:15;;;;;;;9.70;4.85;;;;;;;8.87;85.12;100384.28;4481220;32;33030;-76
2022/09/22 03:04:43;;;;;;;8.20;4.47;;;;;;;8.73;84.84;100386.91;4484463;32;33932;-76
2022/09/22 03:07:11;;;;;;;8.38;4.43;;;;;;;8.60;85.06;100385.25;4478698;32;32613;-76
2022/09/22 03:09:38;;;;;;;8.48;4.65;;;;;;;8.39;86.36;100383.88;4483863;32;33717;-76
2022/09/22 03:12:06;;;;;;;9.50;5.25;;;;;;;8.40;86.58;100381.41;4470763;32;34098;-76
2022/09/22 03:14:33;;;;;;;9.95;5.05;;;;;;;8.26;87.24;100387.34;4482588;32;34134;-76
2022/09/22 03:17:01;;;;;;;9.90;5.20;;;;;;;8.46;86.73;100381.81;4482426;32;33883;-76
2022/09/22 03:19:29;;;;;;;9.73;4.85;;;;;;;8.30;87.40;100389.34;4484074;32;33687;-76
2022/09/22 03:21:56;;;;;;;9.02;4.85;;;;;;;8.08;88.13;100393.13;4483487;32;33523;-76
2022/09/22 03:24:24;;;;;;;9.55;5.05;;;;;;;7.99;88.98;100395.12;4476191;32;33598;-76
2022/09/22 03:26:51;;;;;;;10.00;4.57;;;;;;;8.68;84.46;100388.28;4482948;32;34658;-76
2022/09/22 03:29:19;;;;;;;9.18;4.97;;;;;;;8.37;86.75;100390.63;4484369;32;34791;-76
2022/09/22 03:31:46;;;;;;;10.93;5.25;;;;;;;8.72;86.73;100387.69;4483052;32;33481;-76
2022/09/22 03:34:14;;;;;;;7.60;4.30;;;;;;;8.23;87.11;100392.34;4480518;32;33913;-76
2022/09/22 03:36:41;;;;;;;10.18;4.80;;;;;;;8.04;89.00;100386.00;4479496;32;33861;-76
2022/09/22 03:39:09;;;;;;;9.50;4.62;;;;;;;7.99;89.09;100389.06;4473052;32;33725;-76
2022/09/22 03:41:36;;;;;;;10.65;5.78;;;;;;;7.87;90.41;100384.03;4478789;32;33370;-76
2022/09/22 03:44:04;;;;;;;11.52;5.97;;;;;;;7.65;91.88;100380.06;4479677;32;34467;-76
2022/09/22 03:46:33;;;;;;;17.33;9.30;;;;;;;7.48;93.82;100375.47;4479778;32;34482;-76
2022/09/22 03:49:02;;;;;;;22.98;14.15;;;;;;;7.97;91.02;100375.19;4472133;32;33333;-76
2022/09/22 03:51:29;;;;;;;13.68;9.10;;;;;;;8.50;87.76;100376.81;4479202;32;33438;-76
2022/09/22 03:53:59;;;;;;;12.23;7.62;;;;;;;8.46;88.56;100381.81;4477047;32;33443;-76
2022/09/22 03:56:27;;;;;;;9.80;6.07;;;;;;;7.94;90.50;100372.41;4483366;32;33501;-76
2022/09/22 03:58:54;;;;;;;10.88;5.55;;;;;;;7.72;91.24;100380.44;4475925;32;33904;-76
2022/09/22 04:01:22;;;;;;;10.50;5.87;;;;;;;8.38;87.62;100375.25;4481460;32;33770;-76
2022/09/22 04:03:50;;;;;;;9.98;5.80;;;;;;;8.36;88.64;100374.22;4482725;32;33833;-76
2022/09/22 04:06:18;;;;;;;9.02;5.37;;;;;;;8.00;89.59;100377.97;4482383;32;33982;-76
2022/09/22 04:08:45;;;;;;;9.20;4.82;;;;;;;8.26;87.45;100377.03;4482390;32;33354;-76
2022/09/22 04:11:13;;;;;;;10.60;5.03;;;;;;;7.89;88.79;100374.69;4478732;32;33280;-76
2022/09/22 04:13:40;;;;;;;9.60;4.80;;;;;;;7.46;90.91;100371.91;4483039;32;33635;-76
2022/09/22 04:16:12;;;;;;;8.68;4.80;;;;;;;7.56;90.73;100379.44;4479935;32;33713;-76
2022/09/22 04:18:40;;;;;;;8.20;4.57;;;;;;;7.35;91.02;100383.19;4483371;32;33425;-76
2022/09/22 04:21:08;;;;;;;10.63;4.85;;;;;;;7.15;92.18;100382.72;4472024;32;33707;-76
2022/09/22 04:23:35;;;;;;;10.65;6.10;;;;;;;7.15;91.59;100390.47;4483215;32;33498;-76
2022/09/22 04:26:03;;;;;;;10.52;5.85;;;;;;;7.10;92.24;100381.50;4481416;32;34031;-75
2022/09/22 04:28:31;;;;;;;8.85;4.90;;;;;;;7.42;91.94;100385.38;4483628;32;33867;-76
2022/09/22 04:30:58;;;;;;;8.52;5.05;;;;;;;7.29;91.37;100397.41;4483210;32;34058;-76
2022/09/22 04:33:27;;;;;;;10.32;5.55;;;;;;;7.14;91.96;100393.81;4480492;32;33689;-76
2022/09/22 04:35:54;;;;;;;9.10;5.57;;;;;;;7.25;92.06;100387.72;4481436;32;33633;-76
2022/09/22 04:38:21;;;;;;;12.27;5.65;;;;;;;7.44;90.80;100399.25;4483298;32;35075;-76
2022/09/22 04:40:51;;;;;;;12.05;6.20;;;;;;;7.34;91.83;100402.00;4481975;32;33679;-77
2022/09/22 04:43:19;;;;;;;12.48;6.43;;;;;;;7.09;93.88;100395.19;4478683;32;34497;-76
2022/09/22 04:45:47;;;;;;;10.93;6.10;;;;;;;7.38;93.05;100406.56;4469159;32;34025;-76
2022/09/22 04:48:15;;;;;;;11.63;6.43;;;;;;;8.01;90.26;100398.69;4478840;32;33515;-76
2022/09/22 04:50:43;;;;;;;12.75;7.85;;;;;;;7.58;90.81;100393.31;4473670;32;33444;-76
2022/09/22 04:53:14;;;;;;;12.40;6.87;;;;;;;7.56;91.94;100402.63;4470195;32;33995;-76
2022/09/22 04:55:42;;;;;;;13.50;7.12;;;;;;;7.71;91.88;100392.44;4473423;32;32943;-76
2022/09/22 04:58:10;;;;;;;11.68;6.70;;;;;;;7.47;93.83;100404.59;4478975;32;34626;-76
2022/09/22 05:00:37;;;;;;;10.45;5.90;;;;;;;7.58;92.33;100402.75;4485308;31;33417;-76
2022/09/22 05:03:09;;;;;;;10.85;6.20;;;;;;;7.78;91.67;100393.72;4490287;31;34307;-77
2022/09/22 05:05:37;;;;;;;10.30;6.47;;;;;;;7.46;93.07;100397.69;4494690;31;33500;-77
2022/09/22 05:08:05;;;;;;;13.75;6.57;;;;;;;7.39;94.19;100398.03;4488929;31;33505;-76
2022/09/22 05:10:34;;;;;;;14.57;6.30;;;;;;;8.61;88.37;100392.16;4488426;31;33586;-77
2022/09/22 05:13:02;;;;;;;11.98;5.95;;;;;;;8.39;87.57;100389.91;4490047;31;33519;-77
2022/09/22 05:15:32;;;;;;;10.40;5.70;;;;;;;7.87;88.21;100389.19;4492585;31;33792;-76
2022/09/22 05:17:59;;;;;;;10.23;5.47;;;;;;;7.62;89.98;100392.72;4484316;31;34703;-77
2022/09/22 05:20:27;;;;;;;10.38;4.62;;;;;;;7.49;90.07;100397.84;4480396;31;33062;-76
2022/09/22 05:22:54;;;;;;;8.88;5.45;;;;;;;7.51;89.46;100401.44;4487102;31;35085;-77
2022/09/22 05:25:22;;;;;;;11.98;5.65;;;;;;;7.70;88.74;100387.19;4490612;31;34004;-77
2022/09/22 05:27:52;;;;;;;11.48;5.82;;;;;;;7.49;89.82;100390.13;4496906;31;33768;-75
2022/09/22 05:30:24;;;;;;;11.82;6.45;;;;;;;8.71;83.94;100385.91;4470555;31;33114;-75
2022/09/22 05:32:52;;;;;;;14.18;6.62;;;;;;;9.22;80.63;100383.78;4471408;31;33374;-75
2022/09/22 05:35:22;;;;;;;10.77;6.75;;;;;;;7.85;87.11;100390.78;4488435;31;33862;-75
2022/09/22 05:37:50;;;;;;;46.13;19.55;;;;;;;7.58;89.78;100395.91;4489248;31;34491;-75
2022/09/22 05:40:19;;;;;;;53.70;24.45;;;;;;;7.76;90.82;100391.03;4486792;31;33571;-75
2022/09/22 05:42:50;;;;;;;37.17;17.15;;;;;;;8.30;87.31;100385.87;4486134;31;34752;-74
2022/09/22 05:45:20;;;;;;;18.95;9.57;;;;;;;9.40;83.24;100396.91;4479619;31;34919;-75
2022/09/22 05:47:48;;;;;;;16.12;9.00;;;;;;;9.78;81.00;100403.44;4487594;31;34679;-75
2022/09/22 05:50:17;;;;;;;13.93;7.90;;;;;;;8.67;86.52;100402.00;4489472;31;33839;-74
2022/09/22 05:52:44;;;;;;;10.77;6.85;;;;;;;8.06;91.95;100404.16;4489335;31;33806;-74
2022/09/22 05:55:12;;;;;;;15.82;7.72;;;;;;;9.27;87.47;100404.72;4486399;31;33764;-74
2022/09/22 05:57:40;;;;;;;12.35;7.47;;;;;;;9.79;83.93;100400.94;4484704;31;33664;-74
2022/09/22 06:00:09;;;;;;;12.77;7.45;;;;;;;9.23;84.92;100401.06;4487298;31;33350;-77
2022/09/22 06:02:38;;;;;;;12.05;7.03;;;;;;;8.68;89.38;100393.47;4480517;31;34566;-76
2022/09/22 06:05:06;;;;;;;13.65;7.45;;;;;;;8.83;89.88;100396.09;4488067;31;34003;-75
2022/09/22 06:07:33;;;;;;;14.20;7.57;;;;;;;9.03;88.39;100397.31;4492025;31;34010;-74
2022/09/22 06:10:01;;;;;;;12.20;7.35;;;;;;;8.98;88.57;100403.88;4487516;31;32757;-75
2022/09/22 06:12:28;;;;;;;12.23;7.78;;;;;;;9.09;89.08;100402.84;4488787;31;33967;-76
2022/09/22 06:14:56;;;;;;;12.13;7.45;;;;;;;9.10;88.43;100408.88;4490811;31;33883;-75
2022/09/22 06:17:23;;;;;;;10.73;6.03;;;;;;;10.50;81.89;100409.19;4487648;31;33711;-75
2022/09/22 06:19:51;;;;;;;11.45;6.32;;;;;;;10.80;79.57;100408.25;4487805;31;33107;-75
2022/09/22 06:22:19;;;;;;;11.77;6.55;;;;;;;10.23;81.11;100406.81;4485956;31;33860;-75
2022/09/22 06:24:47;;;;;;;9.70;5.68;;;;;;;10.48;81.30;100400.44;4485856;32;33802;-78
2022/09/22 06:27:15;;;;;;;13.55;6.60;;;;;;;10.77;80.35;100409.78;4491046;31;33659;-75
2022/09/22 06:29:42;;;;;;;10.82;6.20;;;;;;;9.37;86.39;100420.00;4491454;31;33412;-74
2022/09/22 06:32:10;;;;;;;12.18;6.80;;;;;;;9.24;89.36;100419.25;4483768;31;33791;-75
2022/09/22 06:34:38;;;;;;;14.23;6.85;;;;;;;10.39;83.81;100414.69;4483581;31;34071;-75
2022/09/22 06:37:08;;;;;;;11.02;6.25;;;;;;;10.63;82.38;100411.66;4488807;31;34798;-74
2022/09/22 06:39:36;;;;;;;10.32;6.40;;;;;;;10.41;83.29;100410.47;4486661;31;33456;-74
2022/09/22 06:42:05;;;;;;;11.55;5.87;;;;;;;10.23;84.90;100410.28;4482389;31;33776;-74
2022/09/22 06:44:32;;;;;;;10.18;6.10;;;;;;;10.22;83.81;100412.81;4486605;31;33943;-75
2022/09/22 06:47:04;;;;;;;10.90;6.32;;;;;;;10.49;84.05;100407.41;4480224;31;33351;-74
2022/09/22 06:49:32;;;;;;;10.70;5.97;;;;;;;10.56;84.42;100409.53;4492708;31;34530;-74
2022/09/22 06:51:59;;;;;;;10.25;5.15;;;;;;;10.95;81.63;100409.87;4489664;31;33744;-75
2022/09/22 06:54:26;;;;;;;10.05;5.20;;;;;;;10.67;81.57;100412.72;4485135;32;33799;-75
2022/09/22 06:56:54;;;;;;;10.65;5.60;;;;;;;10.36;84.38;100409.31;4483576;31;33524;-75
2022/09/22 06:59:22;;;;;;;8.18;4.62;;;;;;;10.68;81.80;100411.88;4491720;31;33027;-77
2022/09/22 07:01:49;;;;;;;10.55;5.03;;;;;;;11.20;80.41;100412.97;4492672;31;34526;-76
2022/09/22 07:04:18;;;;;;;9.25;4.78;;;;;;;10.82;80.40;100408.34;4484125;31;33721;-76
2022/09/22 07:06:49;;;;;;;8.73;4.62;;;;;;;10.65;81.95;100410.03;4478961;31;33837;-76
2022/09/22 07:09:16;;;;;;;7.87;3.95;;;;;;;10.99;80.60;100411.81;4489821;31;32519;-77
2022/09/22 07:11:46;;;;;;;10.05;3.97;;;;;;;11.49;79.03;100410.97;4489931;31;34420;-75
2022/09/22 07:14:13;;;;;;;9.00;4.43;;;;;;;11.29;79.25;100412.53;4493810;31;33904;-74
2022/09/22 07:16:43;;;;;;;7.25;4.30;;;;;;;10.89;79.52;100414.75;4492070;31;33830;-76
2022/09/22 07:19:10;;;;;;;7.80;4.40;;;;;;;11.41;78.30;100404.47;4491314;31;34227;-75
2022/09/22 07:21:39;;;;;;;8.93;4.15;;;;;;;11.75;76.49;100411.38;4493003;31;33914;-75
2022/09/22 07:24:07;;;;;;;6.55;4.03;;;;;;;12.55;75.20;100405.72;4471304;31;33646;-75
2022/09/22 07:26:38;;;;;;;7.62;4.35;;;;;;;11.56;76.73;100413.03;4481319;31;33810;-75
2022/09/22 07:29:10;;;;;;;6.53;3.80;;;;;;;11.91;76.65;100406.16;4488921;31;33886;-74
2022/09/22 07:31:39;;;;;;;6.05;4.00;;;;;;;11.23;78.09;100411.34;4483895;31;33518;-75
2022/09/22 07:34:08;;;;;;;6.90;3.60;;;;;;;12.11;75.73;100403.63;4478727;31;33119;-75
2022/09/22 07:36:36;;;;;;;7.10;4.05;;;;;;;12.39;74.58;100406.72;4488263;31;33315;-75
2022/09/22 07:39:06;;;;;;;6.47;3.67;;;;;;;11.69;77.79;100413.69;4483420;31;34002;-75
2022/09/22 07:41:40;;;;;;;7.75;4.03;;;;;;;12.45;73.26;100415.66;4492824;31;33621;-74
2022/09/22 07:46:56;;;;;;;6.05;3.60;;;;;;;12.03;75.68;100408.47;4479027;31;33738;-75
2022/09/22 07:49:24;;;;;;;6.45;3.55;;;;;;;12.33;74.98;100414.25;4490598;31;34043;-77
2022/09/22 07:51:53;;;;;;;7.65;3.87;;;;;;;12.79;72.90;100408.59;4495371;31;32382;-75
2022/09/22 07:54:22;;;;;;;7.95;4.03;;;;;;;12.18;73.83;100410.91;4488217;31;33871;-75
2022/09/22 07:56:57;;;;;;;6.15;3.85;;;;;;;12.14;72.72;100409.87;4487893;31;33096;-75
2022/09/22 07:59:25;;;;;;;7.87;4.20;;;;;;;12.33;73.19;100406.44;4487066;31;33165;-76
2022/09/22 08:01:53;;;;;;;7.03;4.10;;;;;;;12.81;72.48;100408.66;4495093;31;34009;-76
2022/09/22 08:04:22;;;;;;;7.50;4.20;;;;;;;12.70;72.27;100405.56;4495469;31;33748;-75
2022/09/22 08:06:53;;;;;;;7.70;4.53;;;;;;;11.90;74.02;100409.59;4492672;31;33649;-75
2022/09/22 08:09:21;;;;;;;7.43;3.80;;;;;;;12.09;73.82;100411.38;4488457;31;33179;-75
2022/09/22 08:11:48;;;;;;;6.62;3.78;;;;;;;13.10;71.77;100415.16;4474469;31;34369;-75
2022/09/22 08:14:17;;;;;;;8.05;4.28;;;;;;;13.43;69.44;100408.81;4485108;31;33854;-74
2022/09/22 08:16:45;;;;;;;6.90;3.60;;;;;;;13.25;68.01;100419.25;4489340;31;33644;-75
2022/09/22 08:19:13;;;;;;;7.57;4.10;;;;;;;13.32;70.09;100422.22;4497782;31;33522;-75
2022/09/22 08:21:46;;;;;;;11.85;4.65;;;;;;;12.84;71.20;100423.50;4479990;31;32032;-74
2022/09/22 08:24:20;;;;;;;6.90;4.32;;;;;;;13.33;70.37;100425.72;4494666;31;34343;-75
2022/09/22 08:26:51;;;;;;;7.37;4.03;;;;;;;14.83;64.80;100417.91;4488930;31;33586;-75
2022/09/22 08:29:19;;;;;;;6.90;3.95;;;;;;;15.05;62.82;100409.16;4488908;31;32524;-76
2022/09/22 08:31:48;;;;;;;7.75;4.15;;;;;;;14.16;66.48;100416.19;4487291;31;34377;-76
2022/09/22 08:34:16;;;;;;;7.53;4.35;;;;;;;13.63;67.46;100417.44;4486850;31;33559;-74
2022/09/22 08:36:47;;;;;;;7.03;4.28;;;;;;;13.37;67.77;100419.84;4495945;31;33853;-76
2022/09/22 08:39:16;;;;;;;7.18;3.90;;;;;;;13.67;68.14;100414.16;4492486;31;33719;-77
2022/09/22 08:41:55;;;;;;;7.10;4.15;;;;;;;14.41;63.79;100406.69;4485379;31;34319;-76
2022/09/22 08:44:48;;;;;;;6.53;4.03;;;;;;;14.39;65.38;100408.34;4486169;31;34205;-74
2022/09/22 08:51:50;;;;;;;6.95;3.50;;;;;;;13.87;66.65;100405.47;4476286;31;33516;-74
2022/09/22 08:53:07;;;;;;;6.43;3.70;;;;;;;14.61;62.62;100400.59;4487516;31;33704;-75
2022/09/22 08:55:36;;;;;;;10.98;3.35;;;;;;;15.24;61.95;100402.00;4483549;31;34046;-74
2022/09/22 08:58:12;;;;;;;5.72;2.50;;;;;;;15.94;59.39;100384.38;4476499;31;34413;-74
2022/09/22 09:00:45;;;;;;;4.37;2.40;;;;;;;16.18;57.37;100395.59;4479214;31;33527;-74
2022/09/22 09:03:22;;;;;;;5.95;2.12;;;;;;;15.58;57.81;100400.56;4484874;32;34046;-74
2022/09/22 09:05:50;;;;;;;4.00;2.12;;;;;;;15.65;56.76;100397.34;4488292;31;34852;-74
2022/09/22 09:08:21;;;;;;;4.53;2.20;;;;;;;15.97;56.29;100394.91;4490093;31;34161;-73
2022/09/22 09:10:58;;;;;;;4.10;2.10;;;;;;;16.36;57.76;100394.41;4489015;31;34078;-74
2022/09/22 09:13:52;;;;;;;4.57;2.10;;;;;;;15.54;56.82;100395.22;4474108;32;33406;-74
2022/09/22 09:16:37;;;;;;;5.97;2.45;;;;;;;15.75;57.10;100394.22;4492992;31;33700;-74
2022/09/22 09:19:30;;;;;;;5.72;2.50;;;;;;;16.12;56.38;100395.41;4477003;31;33893;-74
2022/09/22 09:22:03;;;;;;;3.95;1.95;;;;;;;15.67;58.39;100391.31;4485411;31;33378;-74
2022/09/22 09:24:35;;;;;;;7.03;2.17;;;;;;;17.14;53.02;100388.88;4478784;31;34760;-73
2022/09/22 09:27:25;;;;;;;3.12;1.65;;;;;;;17.74;51.05;100379.97;4487464;31;34012;-74
2022/09/22 09:30:01;;;;;;;4.40;1.92;;;;;;;18.02;50.77;100389.44;4476875;31;33872;-74
2022/09/22 09:32:33;;;;;;;4.30;2.08;;;;;;;17.12;50.31;100393.19;4477778;31;34017;-74
2022/09/22 09:35:01;;;;;;;9.68;2.20;;;;;;;16.03;53.25;100393.41;4494236;31;32443;-75
2022/09/22 09:37:29;;;;;;;5.20;1.90;;;;;;;16.26;52.16;100393.22;4479152;31;34669;-73
2022/09/22 09:40:00;;;;;;;4.93;1.75;;;;;;;17.37;49.49;100386.88;4489623;31;33739;-75
2022/09/22 09:42:32;;;;;;;4.37;1.67;;;;;;;17.46;50.26;100394.06;4489766;31;33273;-75
2022/09/22 09:45:01;;;;;;;82.07;10.35;;;;;;;17.07;50.48;100390.44;4487123;31;34645;-75
2022/09/22 09:47:46;;;;;;;5.00;2.00;;;;;;;16.77;51.44;100393.03;4493779;31;34275;-75
2022/09/22 09:50:14;;;;;;;2.83;1.65;;;;;;;16.20;52.25;100393.03;4476382;31;33812;-76
2022/09/22 09:52:43;;;;;;;6.32;2.10;;;;;;;17.95;48.77;100391.88;4486583;31;32962;-77
2022/09/22 09:55:25;;;;;;;2.85;1.67;;;;;;;16.12;52.07;100390.19;4488979;31;33644;-73
2022/09/22 09:58:10;;;;;;;4.10;1.95;;;;;;;16.67;52.70;100391.88;4489743;31;33900;-72
2022/09/22 10:00:55;;;;;;;3.43;1.73;;;;;;;16.73;50.66;100390.28;4494020;31;33640;-73
2022/09/22 10:03:26;;;;;;;3.97;1.75;;;;;;;16.62;51.18;100385.63;4476557;32;33482;-73
2022/09/22 10:05:59;;;;;;;3.58;1.80;;;;;;;16.52;51.71;100392.31;4498670;31;33844;-74
2022/09/22 10:08:27;;;;;;;3.25;1.80;;;;;;;16.64;50.69;100386.53;4480176;31;34561;-73
2022/09/22 10:11:00;;;;;;;4.32;1.67;;;;;;;16.05;52.93;100388.22;4481457;31;34309;-74
2022/09/22 10:13:34;;;;;;;2.92;1.80;;;;;;;16.04;53.45;100384.72;4478354;31;33507;-76
2022/09/22 10:16:23;;;;;;;4.60;1.85;;;;;;;15.65;53.36;100386.88;4485827;32;33688;-74
2022/09/22 10:19:19;;;;;;;14.48;2.87;;;;;;;16.69;52.78;100382.34;4476975;32;34777;-75
2022/09/22 10:21:47;;;;;;;4.95;2.00;;;;;;;15.58;53.94;100390.13;4486584;31;34199;-75
2022/09/22 10:24:27;;;;;;;3.55;1.73;;;;;;;17.02;52.23;100383.31;4491234;31;33277;-74
2022/09/22 10:26:56;;;;;;;4.32;1.80;;;;;;;17.76;49.20;100380.88;4488269;31;33895;-76
2022/09/22 10:29:24;;;;;;;3.62;1.80;;;;;;;18.13;48.81;100389.66;4488113;31;33760;-76
2022/09/22 10:31:58;;;;;;;6.62;2.00;;;;;;;18.68;47.78;100382.16;4485635;31;33985;-75
2022/09/22 10:34:33;;;;;;;3.78;1.85;;;;;;;18.94;47.02;100395.84;4485740;32;33338;-76
2022/09/22 10:37:05;;;;;;;3.78;1.70;;;;;;;19.59;46.45;100378.69;4485749;31;33957;-75
2022/09/22 10:39:42;;;;;;;4.70;1.70;;;;;;;20.41;43.48;100379.09;4486398;31;34713;-75
2022/09/22 10:42:36;;;;;;;4.85;1.92;;;;;;;19.97;42.15;100368.84;4488327;31;34027;-75
2022/09/22 10:45:06;;;;;;;3.22;1.50;;;;;;;20.41;41.67;100375.59;4485924;31;33288;-77
2022/09/22 10:47:41;;;;;;;2.92;1.58;;;;;;;21.04;40.44;100372.94;4477014;31;33889;-75
2022/09/22 10:50:30;;;;;;;3.58;1.75;;;;;;;19.20;42.93;100370.13;4487474;31;33609;-76
2022/09/22 10:53:08;;;;;;;2.95;1.48;;;;;;;19.01;44.03;100368.00;4485797;31;33834;-74
2022/09/22 10:55:54;;;;;;;2.62;1.55;;;;;;;20.02;41.59;100355.75;4485979;32;33972;-76
2022/09/22 10:58:29;;;;;;;2.83;1.62;;;;;;;18.68;44.57;100361.16;4498566;31;33629;-77
2022/09/22 11:01:11;;;;;;;2.83;1.37;;;;;;;19.55;42.05;100347.97;4485419;31;33744;-75
2022/09/22 11:03:46;;;;;;;3.67;1.80;;;;;;;18.91;44.82;100348.56;4458162;32;32092;-74
2022/09/22 11:12:50;;;;;;;3.05;1.60;;;;;;;18.66;44.42;100348.00;4478499;31;34023;-75
2022/09/22 11:15:26;;;;;;;3.15;1.70;;;;;;;20.01;41.86;100341.72;4476326;31;33935;-75
2022/09/22 11:18:03;;;;;;;3.22;1.65;;;;;;;20.00;40.83;100339.06;4487109;31;33132;-76
2022/09/22 11:21:26;;;;;;;4.55;1.70;;;;;;;19.70;41.82;100337.72;4479854;31;33970;-76
2022/09/22 11:24:13;;;;;;;3.97;2.08;;;;;;;18.93;44.32;100331.09;4449710;32;34383;-75
2022/09/22 11:26:53;;;;;;;3.28;1.58;;;;;;;18.96;44.31;100331.13;4480728;31;33534;-77
2022/09/22 11:29:47;;;;;;;4.40;1.70;;;;;;;18.34;44.76;100328.09;4489760;31;33365;-77
2022/09/22 11:32:40;;;;;;;3.22;2.05;;;;;;;18.23;44.05;100333.09;4488622;31;33933;-75
2022/09/22 11:35:24;;;;;;;2.55;1.50;;;;;;;19.56;41.92;100313.81;4475474;31;34027;-76
2022/09/22 11:38:03;;;;;;;4.20;1.37;;;;;;;19.57;41.60;100310.31;4489868;31;34601;-75
2022/09/22 11:40:55;;;;;;;2.53;1.42;;;;;;;20.20;42.40;100303.44;4487294;31;33127;-76
2022/09/22 11:43:50;;;;;;;2.83;1.27;;;;;;;20.40;40.50;100300.16;4486338;31;33746;-75
2022/09/22 11:46:34;;;;;;;2.90;1.58;;;;;;;20.07;41.04;100300.56;4488083;31;33952;-75
2022/09/22 11:49:20;;;;;;;2.58;1.37;;;;;;;19.13;43.07;100297.31;4486526;31;33636;-75
2022/09/22 11:52:00;;;;;;;3.58;1.42;;;;;;;20.07;39.80;100301.50;4486437;31;33990;-77
2022/09/22 11:54:53;;;;;;;6.72;1.90;;;;;;;20.31;39.24;100300.03;4487088;31;33973;-76
2022/09/22 11:57:23;;;;;;;3.08;1.35;;;;;;;20.35;38.46;100291.31;4488118;31;34828;-75
2022/09/22 12:00:17;;;;;;;3.92;1.35;;;;;;;20.96;38.08;100286.81;4483338;31;33199;-76
2022/09/22 12:02:54;;;;;;;2.12;1.30;;;;;;;21.01;36.70;100285.09;4489316;31;33389;-75
2022/09/22 12:05:40;;;;;;;3.47;1.40;;;;;;;20.83;37.54;100284.91;4473415;31;33975;-75